createdAt,value
2022-08-10T00:01:54.420Z,2.10
2022-08-10T00:04:23.033Z,2.13
2022-08-10T00:06:54.403Z,1.88
2022-08-10T00:09:22.219Z,1.70
2022-08-10T00:11:49.494Z,1.63
2022-08-10T00:14:16.795Z,1.70
2022-08-10T00:16:43.995Z,1.90
2022-08-10T00:19:11.194Z,1.60
2022-08-10T00:21:38.450Z,1.60
2022-08-10T00:24:05.669Z,1.55
2022-08-10T00:27:49.982Z,1.60
2022-08-10T00:29:22.642Z,1.60
2022-08-10T00:31:55.976Z,1.55
2022-08-10T00:34:26.178Z,1.40
2022-08-10T00:36:53.440Z,1.77
2022-08-10T00:39:20.803Z,1.70
2022-08-10T00:42:06.587Z,1.42
2022-08-10T00:44:49.941Z,1.58
2022-08-10T00:47:36.154Z,1.35
2022-08-10T00:50:05.539Z,1.77
2022-08-10T00:52:34.101Z,1.60
2022-08-10T00:55:03.036Z,1.60
2022-08-10T00:57:30.460Z,1.60
2022-08-10T01:00:00.099Z,1.52
2022-08-10T01:02:32.297Z,1.40
2022-08-10T01:05:02.241Z,1.48
2022-08-10T01:07:42.487Z,1.50
2022-08-10T01:10:21.924Z,1.58
2022-08-10T01:13:15.140Z,1.42
2022-08-10T01:16:02.410Z,1.50
2022-08-10T01:18:48.529Z,1.60
2022-08-10T01:21:48.046Z,1.80
2022-08-10T01:24:44.576Z,1.77
2022-08-10T01:27:41.116Z,1.85
2022-08-10T01:30:08.315Z,1.67
2022-08-10T01:32:41.534Z,1.80
2022-08-10T01:35:27.172Z,1.83
2022-08-10T01:38:04.594Z,1.95
2022-08-10T01:40:34.066Z,1.73
2022-08-10T01:43:08.366Z,1.65
2022-08-10T01:45:44.918Z,1.60
2022-08-10T01:48:31.574Z,1.88
2022-08-10T01:51:29.541Z,2.00
2022-08-10T01:53:59.668Z,1.75
2022-08-10T01:56:29.159Z,1.80
2022-08-10T01:58:57.885Z,1.75
2022-08-10T02:01:27.235Z,1.95
2022-08-10T02:04:03.937Z,1.52
2022-08-10T02:06:33.949Z,1.90
2022-08-10T02:09:06.187Z,2.13
2022-08-10T02:12:05.946Z,1.80
2022-08-10T02:14:22.409Z,2.05
2022-08-10T02:16:52.143Z,1.75
2022-08-10T02:19:22.265Z,2.00
2022-08-10T02:22:15.351Z,1.87
2022-08-10T02:24:39.914Z,1.77
2022-08-10T02:27:08.137Z,1.60
2022-08-10T02:29:36.422Z,1.90
2022-08-10T02:32:03.969Z,1.65
2022-08-10T02:34:31.636Z,1.75
2022-08-10T02:36:59.208Z,1.98
2022-08-10T02:39:26.884Z,1.60
2022-08-10T02:45:15.316Z,1.80
2022-08-10T02:45:26.188Z,1.80
2022-08-10T02:48:11.509Z,2.05
2022-08-10T02:50:40.910Z,1.50
2022-08-10T02:53:54.609Z,1.50
2022-08-10T02:56:27.174Z,1.70
2022-08-10T02:59:09.104Z,1.67
2022-08-10T03:01:39.038Z,1.70
2022-08-10T03:04:09.105Z,1.92
2022-08-10T03:06:39.954Z,1.67
2022-08-10T03:09:09.260Z,1.90
2022-08-10T03:12:36.228Z,1.70
2022-08-10T03:14:24.560Z,1.80
2022-08-10T03:16:53.756Z,2.13
2022-08-10T03:20:34.081Z,2.10
2022-08-10T03:22:10.110Z,1.80
2022-08-10T03:24:37.613Z,2.10
2022-08-10T03:27:05.851Z,2.03
2022-08-10T03:30:28.522Z,2.42
2022-08-10T03:32:23.191Z,2.63
2022-08-10T03:34:51.290Z,2.40
2022-08-10T03:37:18.534Z,2.70
2022-08-10T03:39:45.782Z,2.88
2022-08-10T03:42:15.172Z,2.60
2022-08-10T03:44:45.208Z,2.80
2022-08-10T03:47:17.227Z,3.13
2022-08-10T03:49:45.066Z,2.33
2022-08-10T03:52:12.855Z,2.80
2022-08-10T03:54:40.594Z,2.65
2022-08-10T03:57:08.264Z,3.33
2022-08-10T03:59:36.627Z,3.10
2022-08-10T04:02:42.233Z,2.88
2022-08-10T04:04:53.565Z,3.00
2022-08-10T04:07:21.415Z,2.75
2022-08-10T04:09:55.464Z,3.08
2022-08-10T04:12:23.796Z,3.33
2022-08-10T04:14:52.979Z,2.88
2022-08-10T04:18:03.692Z,3.03
2022-08-10T04:20:21.583Z,2.88
2022-08-10T04:22:50.729Z,2.90
2022-08-10T04:25:18.342Z,2.80
2022-08-10T04:27:46.077Z,2.65
2022-08-10T04:30:13.535Z,2.60
2022-08-10T04:32:42.179Z,2.95
2022-08-10T04:35:10.867Z,2.88
2022-08-10T04:37:43.282Z,2.60
2022-08-10T04:40:28.266Z,2.40
2022-08-10T04:43:00.165Z,2.50
2022-08-10T04:45:50.422Z,2.63
2022-08-10T04:48:40.700Z,2.67
2022-08-10T04:51:04.756Z,2.20
2022-08-10T04:53:32.136Z,2.45
2022-08-10T04:55:59.627Z,2.10
2022-08-10T04:58:26.831Z,2.20
2022-08-10T05:00:54.237Z,2.17
2022-08-10T05:03:21.547Z,2.50
2022-08-10T05:05:48.725Z,2.40
2022-08-10T05:08:20.114Z,2.13
2022-08-10T05:10:47.275Z,2.30
2022-08-10T05:13:14.526Z,2.17
2022-08-10T05:15:43.971Z,2.42
2022-08-10T05:18:11.460Z,2.30
2022-08-10T05:20:39.165Z,2.50
2022-08-10T05:23:07.407Z,2.40
2022-08-10T05:25:37.420Z,2.00
2022-08-10T05:28:06.629Z,2.20
2022-08-10T05:30:34.523Z,2.28
2022-08-10T05:33:05.172Z,2.22
2022-08-10T05:35:56.685Z,2.42
2022-08-10T05:38:26.325Z,2.35
2022-08-10T05:40:54.654Z,2.42
2022-08-10T05:43:22.498Z,2.35
2022-08-10T05:46:19.329Z,2.28
2022-08-10T05:48:54.645Z,2.58
2022-08-10T05:51:26.147Z,2.40
2022-08-10T05:54:00.854Z,2.00
2022-08-10T05:56:56.380Z,2.53
2022-08-10T06:00:33.034Z,3.05
2022-08-10T06:02:31.113Z,3.00
2022-08-10T06:04:56.319Z,3.53
2022-08-10T06:07:26.967Z,3.45
2022-08-10T06:09:59.515Z,3.08
2022-08-10T06:12:30.114Z,3.55
2022-08-10T06:15:10.093Z,3.75
2022-08-10T06:17:38.166Z,3.88
2022-08-10T06:20:05.888Z,3.53
2022-08-10T06:22:33.522Z,4.05
2022-08-10T06:25:32.387Z,4.57
2022-08-10T06:27:51.570Z,4.53
2022-08-10T06:30:20.864Z,3.75
2022-08-10T06:32:49.977Z,3.00
2022-08-10T06:35:17.950Z,3.35
2022-08-10T06:37:51.585Z,4.05
2022-08-10T06:40:19.457Z,3.67
2022-08-10T06:42:50.793Z,4.15
2022-08-10T06:45:19.713Z,3.90
2022-08-10T06:47:52.243Z,3.40
2022-08-10T06:50:44.515Z,3.42
2022-08-10T06:53:12.789Z,3.60
2022-08-10T06:55:55.130Z,4.00
2022-08-10T06:58:26.884Z,3.40
2022-08-10T07:00:55.943Z,3.60
2022-08-10T07:03:27.136Z,3.88
2022-08-10T07:05:55.047Z,3.30
2022-08-10T07:08:23.821Z,3.25
2022-08-10T07:10:52.170Z,3.47
2022-08-10T07:14:14.036Z,3.95
2022-08-10T07:16:09.634Z,3.70
2022-08-10T07:18:37.290Z,3.70
2022-08-10T07:21:05.022Z,3.80
2022-08-10T07:23:56.790Z,3.13
2022-08-10T07:26:21.351Z,3.38
2022-08-10T07:28:50.281Z,3.33
2022-08-10T07:31:54.959Z,3.95
2022-08-10T07:34:08.405Z,3.38
2022-08-10T07:36:37.141Z,4.25
2022-08-10T07:39:05.492Z,3.55
2022-08-10T07:41:34.012Z,3.30
2022-08-10T07:44:04.251Z,3.10
2022-08-10T07:46:31.843Z,3.20
2022-08-10T07:49:01.116Z,3.10
2022-08-10T07:51:29.001Z,3.50
2022-08-10T07:53:56.707Z,2.85
2022-08-10T07:56:47.923Z,3.15
2022-08-10T07:59:16.737Z,3.13
2022-08-10T08:01:48.559Z,2.85
2022-08-10T08:04:17.498Z,2.72
2022-08-10T08:06:45.389Z,3.55
2022-08-10T08:09:12.823Z,2.95
2022-08-10T08:11:44.499Z,3.05
2022-08-10T08:14:12.861Z,2.72
2022-08-10T08:16:42.406Z,2.90
2022-08-10T08:19:26.917Z,2.90
2022-08-10T08:24:04.587Z,2.55
2022-08-10T08:24:44.271Z,2.67
2022-08-10T08:27:15.319Z,3.10
2022-08-10T08:29:43.228Z,2.83
2022-08-10T08:32:11.529Z,3.00
2022-08-10T08:34:41.802Z,3.10
2022-08-10T08:37:10.254Z,3.33
2022-08-10T08:39:38.033Z,3.03
2022-08-10T08:42:24.137Z,3.08
2022-08-10T08:45:01.125Z,3.05
2022-08-10T08:48:04.609Z,2.90
2022-08-10T08:50:57.098Z,3.28
2022-08-10T08:54:01.866Z,3.20
2022-08-10T08:56:39.677Z,3.05
2022-08-10T08:59:12.073Z,3.15
2022-08-10T09:01:49.563Z,2.80
2022-08-10T09:04:46.289Z,3.33
2022-08-10T09:07:59.870Z,3.67
2022-08-10T09:10:16.001Z,3.60
2022-08-10T09:12:49.285Z,3.28
2022-08-10T09:15:39.507Z,3.60
2022-08-10T09:18:23.729Z,3.38
2022-08-10T09:20:59.530Z,3.65
2022-08-10T09:24:01.584Z,3.65
2022-08-10T09:26:23.941Z,3.30
2022-08-10T09:29:13.025Z,3.97
2022-08-10T09:33:06.254Z,4.10
2022-08-10T09:36:24.760Z,4.22
2022-08-10T09:38:01.844Z,4.13
2022-08-10T09:40:59.274Z,3.78
2022-08-10T09:43:37.548Z,3.78
2022-08-10T09:46:04.766Z,3.90
2022-08-10T09:48:44.387Z,3.67
2022-08-10T09:54:22.366Z,4.40
2022-08-10T09:57:03.092Z,4.07
2022-08-10T10:00:14.325Z,3.72
2022-08-10T10:03:02.382Z,4.13
2022-08-10T10:05:50.387Z,3.95
2022-08-10T10:08:20.343Z,3.92
2022-08-10T10:11:06.437Z,4.20
2022-08-10T10:14:01.869Z,3.92
2022-08-10T10:16:33.153Z,4.43
2022-08-10T10:19:22.117Z,3.85
2022-08-10T10:21:55.481Z,3.55
2022-08-10T10:24:42.381Z,4.00
2022-08-10T10:27:16.726Z,3.92
2022-08-10T10:29:58.331Z,4.28
2022-08-10T10:32:37.324Z,4.18
2022-08-10T10:35:16.777Z,4.35
2022-08-10T10:38:01.085Z,3.83
2022-08-10T10:40:43.156Z,4.10
2022-08-10T10:43:22.706Z,3.78
2022-08-10T10:46:04.575Z,4.30
2022-08-10T10:48:43.963Z,4.40
2022-08-10T10:51:22.295Z,4.05
2022-08-10T10:54:08.086Z,3.88
2022-08-10T10:56:54.274Z,4.30
2022-08-10T10:59:53.552Z,4.15
2022-08-10T11:02:38.496Z,4.22
2022-08-10T11:05:14.518Z,4.40
2022-08-10T11:07:53.410Z,3.92
2022-08-10T11:10:32.823Z,3.97
2022-08-10T11:14:28.535Z,3.85
2022-08-10T11:16:01.144Z,4.28
2022-08-10T11:18:44.187Z,4.28
2022-08-10T11:21:17.307Z,4.35
2022-08-10T11:24:47.460Z,4.00
2022-08-10T11:26:46.455Z,3.85
2022-08-10T11:29:20.887Z,4.30
2022-08-10T11:32:20.525Z,3.85
2022-08-10T11:35:12.876Z,3.85
2022-08-10T11:38:30.924Z,4.20
2022-08-10T11:40:39.864Z,4.43
2022-08-10T11:43:07.110Z,3.72
2022-08-10T11:45:51.520Z,3.63
2022-08-10T11:48:54.476Z,3.15
2022-08-10T11:51:15.286Z,3.38
2022-08-10T11:53:51.511Z,3.17
2022-08-10T11:56:32.827Z,3.08
2022-08-10T11:59:19.010Z,3.20
2022-08-10T12:01:47.748Z,3.13
2022-08-10T12:04:15.648Z,3.08
2022-08-10T12:06:58.780Z,3.13
2022-08-10T12:10:09.305Z,2.70
2022-08-10T12:12:15.048Z,3.08
2022-08-10T12:15:02.502Z,2.95
2022-08-10T12:17:29.740Z,2.88
2022-08-10T12:20:16.418Z,3.30
2022-08-10T12:22:49.531Z,2.97
2022-08-10T12:25:57.067Z,3.17
2022-08-10T12:28:18.632Z,3.22
2022-08-10T12:30:49.833Z,2.90
2022-08-10T12:33:29.977Z,3.15
2022-08-10T12:36:19.081Z,3.20
2022-08-10T12:38:52.106Z,2.85
2022-08-10T12:41:43.978Z,3.33
2022-08-10T12:44:18.755Z,3.10
2022-08-10T12:47:00.790Z,2.75
2022-08-10T12:49:41.678Z,3.33
2022-08-10T12:52:31.703Z,3.22
2022-08-10T12:55:00.164Z,3.33
2022-08-10T12:57:28.669Z,2.88
2022-08-10T12:59:59.856Z,3.22
2022-08-10T13:02:28.647Z,2.97
2022-08-10T13:04:57.955Z,2.90
2022-08-10T13:08:24.378Z,3.17
2022-08-10T13:10:32.485Z,3.00
2022-08-10T13:13:00.320Z,3.08
2022-08-10T13:15:49.636Z,3.00
2022-08-10T13:18:19.811Z,3.08
2022-08-10T13:20:51.464Z,2.83
2022-08-10T13:23:21.668Z,3.33
2022-08-10T13:25:51.138Z,2.38
2022-08-10T13:28:37.436Z,2.88
2022-08-10T13:31:08.777Z,2.80
2022-08-10T13:34:39.449Z,2.78
2022-08-10T13:36:35.026Z,2.70
2022-08-10T13:39:02.594Z,2.45
2022-08-10T13:41:32.150Z,2.80
2022-08-10T13:44:00.602Z,2.67
2022-08-10T13:46:28.279Z,2.50
2022-08-10T13:48:56.309Z,2.83
2022-08-10T13:51:54.185Z,2.63
2022-08-10T13:54:17.645Z,2.47
2022-08-10T13:56:47.485Z,2.67
2022-08-10T13:59:16.236Z,2.70
2022-08-10T14:01:48.335Z,2.80
2022-08-10T14:04:16.074Z,2.88
2022-08-10T14:06:49.982Z,2.90
2022-08-10T14:09:17.902Z,2.78
2022-08-10T14:11:49.360Z,3.00
2022-08-10T14:14:18.349Z,3.08
2022-08-10T14:16:46.271Z,2.40
2022-08-10T14:19:16.853Z,2.90
2022-08-10T14:21:44.259Z,2.45
2022-08-10T14:24:24.630Z,2.70
2022-08-10T14:26:58.275Z,2.83
2022-08-10T14:29:25.974Z,2.70
2022-08-10T14:32:01.633Z,2.83
2022-08-10T14:36:16.314Z,2.95
2022-08-10T14:37:22.360Z,2.65
2022-08-10T14:39:52.555Z,2.72
2022-08-10T14:42:27.472Z,2.80
2022-08-10T14:44:57.696Z,3.20
2022-08-10T14:47:55.987Z,2.70
2022-08-10T14:50:16.829Z,2.75
2022-08-10T14:53:00.760Z,2.95
2022-08-10T14:55:28.290Z,2.42
2022-08-10T14:58:19.794Z,2.72
2022-08-10T15:00:43.674Z,2.60
2022-08-10T15:04:01.686Z,2.40
2022-08-10T15:06:01.412Z,3.00
2022-08-10T15:08:30.250Z,2.55
2022-08-10T15:11:05.038Z,2.40
2022-08-10T15:13:34.363Z,2.53
2022-08-10T15:16:12.437Z,2.70
2022-08-10T15:18:42.298Z,2.45
2022-08-10T15:21:35.299Z,2.70
2022-08-10T15:24:15.135Z,2.80
2022-08-10T15:26:51.162Z,2.70
2022-08-10T15:29:25.792Z,2.70
2022-08-10T15:32:12.306Z,3.17
2022-08-10T15:34:58.611Z,2.70
2022-08-10T15:37:40.622Z,2.80
2022-08-10T15:40:24.333Z,3.22
2022-08-10T15:43:20.262Z,2.58
2022-08-10T15:45:57.548Z,3.15
2022-08-10T15:48:26.200Z,2.65
2022-08-10T15:51:05.914Z,2.97
2022-08-10T15:53:46.878Z,3.08
2022-08-10T15:56:28.282Z,2.90
2022-08-10T15:59:08.018Z,2.70
2022-08-10T16:02:03.966Z,2.58
2022-08-10T16:04:32.349Z,2.40
2022-08-10T16:07:01.993Z,2.33
2022-08-10T16:10:23.379Z,2.70
2022-08-10T16:12:30.137Z,2.33
2022-08-10T16:15:00.400Z,2.30
2022-08-10T16:17:28.741Z,2.30
2022-08-10T16:19:57.855Z,2.22
2022-08-10T16:22:34.493Z,2.60
2022-08-10T16:25:12.164Z,2.40
2022-08-10T16:27:39.915Z,3.25
2022-08-10T16:30:07.593Z,2.20
2022-08-10T16:32:36.382Z,2.50
2022-08-10T16:35:09.275Z,2.20
2022-08-10T16:37:58.736Z,2.70
2022-08-10T16:40:27.598Z,2.53
2022-08-10T16:42:55.404Z,2.38
2022-08-10T16:45:49.201Z,2.78
2022-08-10T16:48:49.360Z,2.92
2022-08-10T16:51:08.868Z,3.03
2022-08-10T16:53:43.938Z,2.63
2022-08-10T16:56:15.956Z,2.88
2022-08-10T16:58:45.186Z,2.70
2022-08-10T17:01:21.029Z,2.63
2022-08-10T17:04:07.569Z,2.90
2022-08-10T17:06:39.656Z,2.75
2022-08-10T17:09:07.808Z,3.15
2022-08-10T17:11:36.555Z,2.90
2022-08-10T17:14:04.626Z,3.08
2022-08-10T17:16:36.325Z,2.75
2022-08-10T17:19:03.942Z,2.90
2022-08-10T17:21:35.902Z,3.08
2022-08-10T17:24:04.897Z,3.03
2022-08-10T17:26:37.120Z,2.92
2022-08-10T17:29:54.111Z,3.00
2022-08-10T17:32:11.932Z,2.50
2022-08-10T17:34:41.021Z,3.15
2022-08-10T17:37:14.053Z,3.10
2022-08-10T17:39:47.113Z,2.65
2022-08-10T17:42:20.811Z,2.70
2022-08-10T17:44:50.086Z,2.80
2022-08-10T17:47:17.783Z,3.00
2022-08-10T17:49:45.691Z,3.17
2022-08-10T17:52:15.002Z,2.80
2022-08-10T17:54:44.434Z,2.90
2022-08-10T17:57:18.756Z,2.95
2022-08-10T17:59:46.951Z,3.00
2022-08-10T18:02:16.331Z,3.28
2022-08-10T18:04:48.383Z,3.40
2022-08-10T18:07:15.858Z,3.88
2022-08-10T18:09:46.578Z,3.05
2022-08-10T18:12:32.161Z,3.63
2022-08-10T18:15:08.506Z,3.53
2022-08-10T18:17:40.672Z,3.63
2022-08-10T18:20:08.937Z,3.25
2022-08-10T18:22:45.647Z,3.50
2022-08-10T18:25:18.053Z,3.28
2022-08-10T18:28:01.506Z,3.65
2022-08-10T18:30:36.668Z,3.30
2022-08-10T18:33:05.412Z,3.33
2022-08-10T18:35:34.253Z,2.97
2022-08-10T18:38:02.988Z,3.47
2022-08-10T18:40:35.548Z,3.30
2022-08-10T18:43:09.958Z,3.67
2022-08-10T18:45:53.277Z,2.95
2022-08-10T18:48:22.730Z,3.55
2022-08-10T18:50:54.358Z,3.60
2022-08-10T18:53:33.793Z,3.70
2022-08-10T18:56:10.613Z,3.65
2022-08-10T18:58:46.438Z,3.47
2022-08-10T19:01:32.775Z,3.85
2022-08-10T19:04:24.761Z,3.30
2022-08-10T19:06:57.326Z,3.83
2022-08-10T19:09:47.679Z,3.60
2022-08-10T19:12:30.211Z,3.38
2022-08-10T19:15:07.064Z,3.50
2022-08-10T19:18:03.883Z,3.30
2022-08-10T19:20:36.698Z,3.67
2022-08-10T19:23:06.191Z,3.83
2022-08-10T19:26:32.912Z,3.30
2022-08-10T19:28:30.363Z,3.50
2022-08-10T19:31:03.439Z,3.53
2022-08-10T19:33:36.995Z,3.63
2022-08-10T19:36:09.003Z,3.65
2022-08-10T19:38:45.519Z,3.50
2022-08-10T19:41:32.207Z,3.97
2022-08-10T19:44:19.022Z,4.00
2022-08-10T19:46:56.766Z,4.03
2022-08-10T19:49:27.121Z,3.95
2022-08-10T19:52:10.987Z,4.25
2022-08-10T19:54:53.212Z,3.80
2022-08-10T19:57:29.409Z,3.92
2022-08-10T20:00:18.622Z,3.88
2022-08-10T20:02:51.315Z,3.33
2022-08-10T20:05:30.899Z,4.05
2022-08-10T20:08:20.234Z,3.92
2022-08-10T20:10:55.951Z,3.83
2022-08-10T20:13:32.273Z,3.88
2022-08-10T20:16:08.983Z,4.20
2022-08-10T20:18:40.070Z,3.55
2022-08-10T20:21:17.240Z,4.20
2022-08-10T20:23:55.634Z,3.83
2022-08-10T20:26:29.019Z,3.90
2022-08-10T20:29:05.773Z,4.43
2022-08-10T20:31:35.884Z,4.50
2022-08-10T20:34:06.575Z,4.57
2022-08-10T20:36:35.326Z,4.25
2022-08-10T20:39:18.203Z,4.63
2022-08-10T20:41:46.278Z,4.80
2022-08-10T20:44:32.374Z,4.57
2022-08-10T20:47:14.727Z,4.88
2022-08-10T20:49:42.057Z,5.03
2022-08-10T20:52:09.561Z,5.03
2022-08-10T20:54:43.358Z,5.03
2022-08-10T20:57:55.963Z,5.22
2022-08-10T21:00:13.101Z,5.13
2022-08-10T21:02:49.072Z,5.70
2022-08-10T21:05:22.312Z,5.35
2022-08-10T21:08:08.612Z,5.65
2022-08-10T21:10:36.226Z,4.97
2022-08-10T21:13:28.161Z,5.85
2022-08-10T21:15:55.805Z,5.07
2022-08-10T21:18:23.023Z,5.40
2022-08-10T21:21:11.758Z,5.07
2022-08-10T21:23:49.145Z,5.78
2022-08-10T21:26:18.887Z,5.50
2022-08-10T21:29:04.733Z,5.45
2022-08-10T21:31:31.907Z,6.15
2022-08-10T21:34:12.459Z,5.60
2022-08-10T21:36:48.774Z,6.55
2022-08-10T21:39:43.143Z,5.60
2022-08-10T21:42:59.153Z,5.80
2022-08-10T21:45:59.043Z,5.80
2022-08-10T21:48:57.166Z,6.18
2022-08-10T21:52:06.691Z,5.45
2022-08-10T21:54:58.558Z,4.80
2022-08-10T21:58:00.766Z,5.13
2022-08-10T22:00:47.003Z,5.30
2022-08-10T22:03:40.197Z,5.63
2022-08-10T22:06:27.576Z,5.00
2022-08-10T22:09:19.543Z,5.35
2022-08-10T22:12:31.185Z,5.85
2022-08-10T22:15:22.398Z,5.20
2022-08-10T22:18:08.592Z,5.30
2022-08-10T22:20:55.482Z,5.20
2022-08-10T22:23:41.473Z,5.82
2022-08-10T22:27:00.600Z,5.78
2022-08-10T22:30:04.755Z,5.60
2022-08-10T22:33:15.315Z,6.25
2022-08-10T22:36:02.882Z,6.30
2022-08-10T22:38:57.587Z,5.38
2022-08-10T22:42:03.063Z,5.78
2022-08-10T22:44:49.591Z,5.40
2022-08-10T22:47:38.206Z,5.65
2022-08-10T22:50:10.337Z,5.65
2022-08-10T22:53:03.083Z,6.18
2022-08-10T22:55:49.743Z,5.40
2022-08-10T22:58:36.276Z,6.07
2022-08-10T23:02:07.890Z,5.75
2022-08-10T23:04:42.776Z,5.35
2022-08-10T23:07:19.652Z,5.63
2022-08-10T23:09:49.186Z,5.47
2022-08-10T23:12:24.276Z,5.82
2022-08-10T23:15:12.572Z,5.60
2022-08-10T23:18:02.061Z,5.60
2022-08-10T23:20:30.839Z,5.65
2022-08-10T23:23:04.765Z,4.97
2022-08-10T23:25:34.556Z,5.63
2022-08-10T23:28:12.381Z,5.30
2022-08-10T23:30:47.937Z,5.25
2022-08-10T23:33:38.041Z,6.13
2022-08-10T23:36:33.660Z,5.85
2022-08-10T23:38:57.291Z,5.65
2022-08-10T23:41:42.070Z,6.35
2022-08-10T23:44:14.822Z,5.82
2022-08-10T23:46:48.872Z,5.90
2022-08-10T23:49:16.734Z,5.88
2022-08-10T23:51:56.449Z,6.03
2022-08-10T23:54:24.760Z,5.72
2022-08-10T23:56:52.977Z,5.55
2022-08-10T23:59:22.054Z,5.97
